Home > Products > Valid Products > MTR

000
SAUS43 KABR 010357
MTR8D3
METAR K8D3 010356Z AUTO 00000KT 17/15 A2991 RMK AO1 SLP117 T01670150





000
SAUS43 KABR 010257
MTR8D3
METAR K8D3 010256Z AUTO 14004KT 19/15 A2989 RMK AO1 SLP111 T01890150
55002





000
SAUS43 KABR 010257
MTR8D3
METAR K8D3 010256Z AUTO 14004KT 19/15 A2989 RMK AO1 SLP111 T01890150
55002





000
SAUS43 KABR 010158
MTR8D3
METAR K8D3 010156Z AUTO 15005KT 21/15 A2988 RMK AO1 SLP107 T02110150





000
SAUS43 KABR 010158
MTR8D3
METAR K8D3 010156Z AUTO 15005KT 21/15 A2988 RMK AO1 SLP107 T02110150





000
SAUS43 KABR 010058
MTR8D3
METAR K8D3 010056Z AUTO 12006KT 22/15 A2990 RMK AO1 SLP112 T02220150





000
SAUS43 KABR 010058
MTR8D3
METAR K8D3 010056Z AUTO 12006KT 22/15 A2990 RMK AO1 SLP112 T02220150





000
SAUS43 KABR 302358
MTR8D3
METAR K8D3 302356Z AUTO 11007KT 23/14 A2990 RMK AO1 SLP113 T02280144
10233 20211 55002





000
SAUS43 KABR 302358
MTR8D3
METAR K8D3 302356Z AUTO 11007KT 23/14 A2990 RMK AO1 SLP113 T02280144
10233 20211 55002





000
SAUS43 KABR 302257
MTR8D3
METAR K8D3 302256Z AUTO 12008KT 23/14 A2990 RMK AO1 SLP112 T02280144





000
SAUS43 KABR 302257
MTR8D3
METAR K8D3 302256Z AUTO 12008KT 23/14 A2990 RMK AO1 SLP112 T02280144





000
SAUS43 KABR 302158
MTR8D3
METAR K8D3 302156Z AUTO 15006KT 23/16 A2990 RMK AO1 SLP112 T02330156





000
SAUS43 KABR 302057
MTR8D3
METAR K8D3 302056Z AUTO 17009KT 23/16 A2991 RMK AO1 SLP115 T02280161
58009





000
SAUS43 KABR 301957
MTR8D3
METAR K8D3 301956Z AUTO 16006KT 21/16 A2992 RMK AO1 SLP121 T02110156





000
SAUS43 KABR 301857
MTR8D3
METAR K8D3 301856Z AUTO 15006KT 21/15 A2993 RMK AO1 SLP125 T02110150





000
SAUS43 KABR 301757
MTR8D3
METAR K8D3 301756Z AUTO 14007KT 21/16 A2993 RMK AO1 SLP124 T02110161
10211 20161 55002





000
SAUS43 KABR 301757
MTR8D3
METAR K8D3 301756Z AUTO 14007KT 21/16 A2993 RMK AO1 SLP124 T02110161
10211 20161 55002





000
SAUS43 KABR 301658
MTR8D3
METAR K8D3 301656Z AUTO 13007KT 21/16 A2993 RMK AO1 SLP124 T02060161





000
SAUS43 KABR 301557
MTR8D3
METAR K8D3 301556Z AUTO 12007KT 21/16 A2993 RMK AO1 SLP125 T02110161





000
SAUS43 KABR 301458
MTR8D3
METAR K8D3 301456Z AUTO 12006KT 19/16 A2994 RMK AO1 SLP126 T01940161
58006





000
SAUS43 KABR 301458
MTR8D3
METAR K8D3 301456Z AUTO 12006KT 19/16 A2994 RMK AO1 SLP126 T01940161
58006





000
SAUS43 KABR 301357
MTR8D3
METAR K8D3 301356Z AUTO 08004KT 19/17 A2994 RMK AO1 SLP127 T01890167





000
SAUS43 KABR 301357
MTR8D3
METAR K8D3 301356Z AUTO 08004KT 19/17 A2994 RMK AO1 SLP127 T01890167





000
SAUS43 KABR 301257
MTR8D3
METAR K8D3 301256Z AUTO 00000KT 18/16 A2995 RMK AO1 SLP129 T01830161





000
SAUS43 KABR 301257
MTR8D3
METAR K8D3 301256Z AUTO 00000KT 18/16 A2995 RMK AO1 SLP129 T01830161





000
SAUS43 KABR 301157
MTR8D3
METAR K8D3 301156Z AUTO 34005KT 16/16 A2996 RMK AO1 SLP130 T01610156
10172 20144 53015





000
SAUS43 KABR 301057
MTR8D3
METAR K8D3 301056Z AUTO 35003KT 16/14 A2994 RMK AO1 SLP124 T01560144





000
SAUS43 KABR 300957
MTR8D3
METAR K8D3 300956Z AUTO 32004KT 16/14 A2992 RMK AO1 SLP117 T01560144





000
SAUS43 KABR 300857
MTR8D3
METAR K8D3 300856Z AUTO 32006KT 16/15 A2991 RMK AO1 SLP113 T01610150
50000





000
SAUS43 KABR 300857
MTR8D3
METAR K8D3 300856Z AUTO 32006KT 16/15 A2991 RMK AO1 SLP113 T01610150
50000





000
SAUS43 KABR 300757
MTR8D3
METAR K8D3 300756Z AUTO 34005KT 17/16 A2991 RMK AO1 SLP113 T01670156





000
SAUS43 KABR 300658
MTR8D3
METAR K8D3 300656Z AUTO 31005KT 17/16 A2991 RMK AO1 SLP114 T01670156





000
SAUS43 KABR 300658
MTR8D3
METAR K8D3 300656Z AUTO 31005KT 17/16 A2991 RMK AO1 SLP114 T01670156





000
SAUS43 KABR 300558
MTR8D3
METAR K8D3 300556Z AUTO 35004KT 17/16 A2991 RMK AO1 SLP113 T01720156
10256 20172 402830167 50006





000
SAUS43 KABR 300558
MTR8D3
METAR K8D3 300556Z AUTO 35004KT 17/16 A2991 RMK AO1 SLP113 T01720156
10256 20172 402830167 50006





000
SAUS43 KABR 300457
MTR8D3
METAR K8D3 300456Z AUTO 34007KT 18/16 A2992 RMK AO1 SLP113 T01830161





000
SAUS43 KABR 300457
MTR8D3
METAR K8D3 300456Z AUTO 34007KT 18/16 A2992 RMK AO1 SLP113 T01830161





000
SAUS43 KABR 300357
MTR8D3
METAR K8D3 300356Z AUTO 34005KT 18/16 A2991 RMK AO1 SLP112 T01780161





000
SAUS43 KABR 300257
MTR8D3
METAR K8D3 300256Z AUTO 35006KT 19/17 A2990 RMK AO1 SLP108 T01890167
53010





000
SAUS43 KABR 300157
MTR8D3
METAR K8D3 300156Z AUTO 35006KT 21/17 A2987 RMK AO1 SLP101 T02110172





000
SAUS43 KABR 300157
MTR8D3
METAR K8D3 300156Z AUTO 35006KT 21/17 A2987 RMK AO1 SLP101 T02110172





000
SAUS43 KABR 300057
MTR8D3
METAR K8D3 300056Z AUTO 01008KT 24/17 A2987 RMK AO1 SLP100 T02390172





000
SAUS43 KABR 292357
MTR8D3
METAR K8D3 292356Z AUTO 01011KT 26/17 A2986 RMK AO1 SLP096 T02560172
10283 20256 53003





000
SAUS43 KABR 292357
MTR8D3
METAR K8D3 292356Z AUTO 01011KT 26/17 A2986 RMK AO1 SLP096 T02560172
10283 20256 53003





000
SAUS43 KABR 292257
MTR8D3
METAR K8D3 292256Z AUTO 34010KT 27/17 A2986 RMK AO1 SLP093 T02720172





000
SAUS43 KABR 292157
MTR8D3
METAR K8D3 292156Z AUTO 34012KT 28/16 A2985 RMK AO1 SLP092 T02780161





000
SAUS43 KABR 292157
MTR8D3
METAR K8D3 292156Z AUTO 34012KT 28/16 A2985 RMK AO1 SLP092 T02780161





000
SAUS43 KABR 292058
MTR8D3
METAR K8D3 292056Z AUTO 32013KT 28/16 A2986 RMK AO1 SLP092 T02780156
58007





000
SAUS43 KABR 292058
MTR8D3
METAR K8D3 292056Z AUTO 32013KT 28/16 A2986 RMK AO1 SLP092 T02780156
58007





000
SAUS43 KABR 291958
MTR8D3
METAR K8D3 291956Z AUTO 33013KT 28/15 A2987 RMK AO1 SLP097 T02780150





000
SAUS43 KABR 291857
MTR8D3
METAR K8D3 291856Z AUTO 33012KT 27/16 A2988 RMK AO1 SLP099 T02670156





000
SAUS43 KABR 291757
MTR8D3
METAR K8D3 291756Z AUTO 32010KT 26/16 A2988 RMK AO1 SLP100 T02610161
10261 20183 57004





000
SAUS43 KABR 291757
MTR8D3
METAR K8D3 291756Z AUTO 32010KT 26/16 A2988 RMK AO1 SLP100 T02610161
10261 20183 57004





000
SAUS43 KABR 291657
MTR8D3
METAR K8D3 291656Z AUTO 32009KT 26/16 A2988 RMK AO1 SLP102 T02610161





000
SAUS43 KABR 291557
MTR8D3
METAR K8D3 291556Z AUTO 31011KT 25/16 A2988 RMK AO1 SLP103 T02500156





000
SAUS43 KABR 291557
MTR8D3
METAR K8D3 291556Z AUTO 31011KT 25/16 A2988 RMK AO1 SLP103 T02500156





000
SAUS43 KABR 291457
MTR8D3
METAR K8D3 291456Z AUTO 31009KT 23/17 A2989 RMK AO1 SLP106 T02330167
50003





000
SAUS43 KABR 291457
MTR8D3
METAR K8D3 291456Z AUTO 31009KT 23/17 A2989 RMK AO1 SLP106 T02330167
50003





000
SAUS43 KABR 291357
MTR8D3
METAR K8D3 291356Z AUTO 33004KT 22/17 A2990 RMK AO1 SLP107 T02170172





000
SAUS43 KABR 291357
MTR8D3
METAR K8D3 291356Z AUTO 33004KT 22/17 A2990 RMK AO1 SLP107 T02170172





000
SAUS43 KABR 291258
MTR8D3
METAR K8D3 291256Z AUTO 00000KT 20/16 A2989 RMK AO1 SLP104 T02000156





000
SAUS43 KABR 291258
MTR8D3
METAR K8D3 291256Z AUTO 00000KT 20/16 A2989 RMK AO1 SLP104 T02000156





000
SAUS43 KABR 291157
MTR8D3
METAR K8D3 291156Z AUTO 34004KT 18/15 A2988 RMK AO1 SLP101 T01830150
10194 20167 53003





000
SAUS43 KABR 291157
MTR8D3
METAR K8D3 291156Z AUTO 34004KT 18/15 A2988 RMK AO1 SLP101 T01830150
10194 20167 53003





000
SAUS43 KABR 291058
MTR8D3
METAR K8D3 291056Z AUTO 31007KT 19/16 A2987 RMK AO1 SLP098 T01890156





000
SAUS43 KABR 290958
MTR8D3
METAR K8D3 290956Z AUTO 31006KT 18/14 A2987 RMK AO1 SLP096 T01780144





000
SAUS43 KABR 290857
MTR8D3
METAR K8D3 290856Z AUTO 30006KT 18/14 A2987 RMK AO1 SLP098 T01780144
58000





000
SAUS43 KABR 290857
MTR8D3
METAR K8D3 290856Z AUTO 30006KT 18/14 A2987 RMK AO1 SLP098 T01780144
58000





000
SAUS43 KABR 290758
MTR8D3
METAR K8D3 290756Z AUTO 31004KT 18/14 A2987 RMK AO1 SLP098 T01780144





000
SAUS43 KABR 290658
MTR8D3
METAR K8D3 290656Z AUTO 33007KT 18/15 A2988 RMK AO1 SLP099 T01830150





000
SAUS43 KABR 290558
MTR8D3
METAR K8D3 290556Z AUTO 32007KT 18/15 A2987 RMK AO1 SLP099 T01830150
10278 20183 402940161 50003





000
SAUS43 KABR 290558
MTR8D3
METAR K8D3 290556Z AUTO 32007KT 18/15 A2987 RMK AO1 SLP099 T01830150
10278 20183 402940161 50003





000
SAUS43 KABR 290457
MTR8D3
METAR K8D3 290456Z AUTO 32006KT 18/15 A2988 RMK AO1 SLP101 T01830150





000
SAUS43 KABR 290357
MTR8D3
METAR K8D3 290356Z AUTO 32006KT 19/15 A2987 RMK AO1 SLP100 T01890150





000
SAUS43 KABR 290258
MTR8D3
METAR K8D3 290256Z AUTO 31005KT 20/16 A2986 RMK AO1 SLP097 T02000161
53003





000
SAUS43 KABR 290258
MTR8D3
METAR K8D3 290256Z AUTO 31005KT 20/16 A2986 RMK AO1 SLP097 T02000161
53003





000
SAUS43 KABR 290157
MTR8D3
METAR K8D3 290156Z AUTO 34005KT 23/17 A2986 RMK AO1 SLP092 T02330172





000
SAUS43 KABR 290157
MTR8D3
METAR K8D3 290156Z AUTO 34005KT 23/17 A2986 RMK AO1 SLP092 T02330172





000
SAUS43 KABR 290058
MTR8D3
METAR K8D3 290056Z AUTO 01008KT 27/16 A2985 RMK AO1 SLP092 T02670161





000
SAUS43 KABR 290058
MTR8D3
METAR K8D3 290056Z AUTO 01008KT 27/16 A2985 RMK AO1 SLP092 T02670161





000
SAUS43 KABR 282357
MTR8D3
METAR K8D3 282356Z AUTO 03013KT 28/16 A2985 RMK AO1 SLP092 T02780161
10294 20267 55004





000
SAUS43 KABR 282357
MTR8D3
METAR K8D3 282356Z AUTO 03013KT 28/16 A2985 RMK AO1 SLP092 T02780161
10294 20267 55004





000
SAUS43 KABR 282257
MTR8D3
METAR K8D3 282256Z AUTO 02015KT 28/15 A2985 RMK AO1 SLP091 T02780150





000
SAUS43 KABR 282157
MTR8D3
METAR K8D3 282156Z AUTO 36012KT 28/15 A2986 RMK AO1 SLP091 T02830150





000
SAUS43 KABR 282057
MTR8D3
METAR K8D3 282056Z AUTO 35009KT 28/15 A2987 RMK AO1 SLP095 T02830150
58011





000
SAUS43 KABR 282057
MTR8D3
METAR K8D3 282056Z AUTO 35009KT 28/15 A2987 RMK AO1 SLP095 T02830150
58011





000
SAUS43 KABR 281957
MTR8D3
METAR K8D3 281956Z AUTO 01012KT 29/15 A2988 RMK AO1 SLP098 T02890150





000
SAUS43 KABR 281957
MTR8D3
METAR K8D3 281956Z AUTO 01012KT 29/15 A2988 RMK AO1 SLP098 T02890150





000
SAUS43 KABR 281857
MTR8D3
METAR K8D3 281856Z AUTO 02013G19KT 27/14 A2989 RMK AO1 SLP104
T02720139





000
SAUS43 KABR 281857
MTR8D3
METAR K8D3 281856Z AUTO 02013G19KT 27/14 A2989 RMK AO1 SLP104
T02720139





000
SAUS43 KABR 281757
MTR8D3
METAR K8D3 281756Z AUTO 02013KT 27/14 A2990 RMK AO1 SLP108 T02670144
10267 20189 51005





000
SAUS43 KABR 281757
MTR8D3
METAR K8D3 281756Z AUTO 02013KT 27/14 A2990 RMK AO1 SLP108 T02670144
10267 20189 51005





000
SAUS43 KABR 281657
MTR8D3
METAR K8D3 281656Z AUTO 36014KT 26/15 A2990 RMK AO1 SLP108 T02560150





000
SAUS43 KABR 281557
MTR8D3
METAR K8D3 281556Z AUTO 02013KT 24/16 A2989 RMK AO1 SLP104 T02390161





000
SAUS43 KABR 281557
MTR8D3
METAR K8D3 281556Z AUTO 02013KT 24/16 A2989 RMK AO1 SLP104 T02390161





000
SAUS43 KABR 281457
MTR8D3
METAR K8D3 281456Z AUTO 36014KT 23/16 A2988 RMK AO1 SLP102 T02280161
51013





000
SAUS43 KABR 281457
MTR8D3
METAR K8D3 281456Z AUTO 36014KT 23/16 A2988 RMK AO1 SLP102 T02280161
51013





000
SAUS43 KABR 281358
MTR8D3
METAR K8D3 281356Z AUTO 01014KT 22/17 A2988 RMK AO1 SLP100 T02220167





000
SAUS43 KABR 281358
MTR8D3
METAR K8D3 281356Z AUTO 01014KT 22/17 A2988 RMK AO1 SLP100 T02220167





000
SAUS43 KABR 281257
MTR8D3
METAR K8D3 281256Z AUTO 36013KT 20/17 A2986 RMK AO1 SLP097 T02000167





000
SAUS43 KABR 281257
MTR8D3
METAR K8D3 281256Z AUTO 36013KT 20/17 A2986 RMK AO1 SLP097 T02000167





000
SAUS43 KABR 281158
MTR8D3
METAR K8D3 281156Z AUTO 36010KT 19/17 A2985 RMK AO1 SLP090 T01890167
10211 20161 53014





000
SAUS43 KABR 281158
MTR8D3
METAR K8D3 281156Z AUTO 36010KT 19/17 A2985 RMK AO1 SLP090 T01890167
10211 20161 53014





000
SAUS43 KABR 281057
MTR8D3
METAR K8D3 281056Z AUTO 34011KT 18/16 A2983 RMK AO1 SLP082 T01830161





000
SAUS43 KABR 281057
MTR8D3
METAR K8D3 281056Z AUTO 34011KT 18/16 A2983 RMK AO1 SLP082 T01830161





000
SAUS43 KABR 280957
MTR8D3
METAR K8D3 280956Z AUTO 34011KT 19/16 A2981 RMK AO1 SLP074 T01890161





000
SAUS43 KABR 280857
MTR8D3
METAR K8D3 280856Z AUTO 34014KT 19/16 A2980 RMK AO1 SLP071 T01940161
55001





000
SAUS43 KABR 280757
MTR8D3
METAR K8D3 280756Z AUTO 34015KT 21/16 A2980 RMK AO1 SLP070 T02110156





000
SAUS43 KABR 280657
MTR8D3
METAR K8D3 280656Z AUTO 00000KT 18/16 A2979 RMK AO1 SLP070 T01780161





000
SAUS43 KABR 280657
MTR8D3
METAR K8D3 280656Z AUTO 00000KT 18/16 A2979 RMK AO1 SLP070 T01780161





000
SAUS43 KABR 280557
MTR8D3
METAR K8D3 280556Z AUTO 16003KT 17/16 A2980 RMK AO1 SLP075 T01720156
10256 20172 403110133 50000





000
SAUS43 KABR 280557
MTR8D3
METAR K8D3 280556Z AUTO 16003KT 17/16 A2980 RMK AO1 SLP075 T01720156
10256 20172 403110133 50000





000
SAUS43 KABR 280457
MTR8D3
METAR K8D3 280456Z AUTO 00000KT 18/16 A2981 RMK AO1 SLP076 T01780161





000
SAUS43 KABR 280457
MTR8D3
METAR K8D3 280456Z AUTO 00000KT 18/16 A2981 RMK AO1 SLP076 T01780161





    US Dept of Commerce
    National Oceanic and Atmospheric Administration
    National Weather Service
    1325 East West Highway
    Silver Spring, MD 20910
    Page Author: NWS Internet Services Team
Disclaimer
Information Quality
Credits
Glossary
Privacy Policy
Freedom of Information Act (FOIA)
About Us
Career Opportunities